OIBL  Bandar Lengeh  Airport

Bandar Lengeh, Iran

Add Bookmark
ICAO OIBL
IATA BDH
Type Airport
Status Operational
Latitude
26° 31' 55" N
26.532000
Longitude
54° 49' 29" E
54.824799
Local (GMT +4.5 ) UTC
Jun 1, 2016 04:16 am May 31, 2016 23:46
Sunrise-Sunset Local UTC
Begin Civil Twilight 05:30 am 01:00
Sunrise 05:56 am 01:26
Sunset 07:41 pm 15:11
End Civil Twilight 08:06 pm 15:36
VFR
VFR
MVFR
MVFR
IFR
IFR
LIFR
LIFR
Unknown
Unavailable

Current Weather

METAR Observed MVFR
OIBL 312100Z 26019KT 6000 NSC 29/21 Q0999 Tue, May 31, 2016 @ 21:00 UTC
(2 Hours, 46 Minutes ago)
Marginal Visual Flight Rules
Wind Visibility Conditions
260° at 19 knots (35 kph) 6,003 m
  • No significant weather
Temperatures Readings Precipitation
Current Temp
29°C
84°F
Dewpoint
21°C
70°F
Heat Index
31°C
88°
Humidity 62%
Altimeter 29.5" Hg
Sea Level Pressure 999 mb
Field Elevation
14 m
46 ft
None Recorded

Additional weather within a 92.6km radius of OIBL

Map ICAO Location
OIBS 74.8km S/SW (202°)
OIBA 75.9km S/SE (164°)
VFR
VFR
MVFR
MVFR
IFR
IFR
LIFR
LIFR
Unknown
Unavailable
-
-

CheckWX.com is intended as a tool to help pilots better visualize weather data. It is not intended as a substitute for an official weather briefing obtained from a Flight Service Station. CheckWX.com does not meet the FAA requirements for an official pre-flight weather briefing. Therefore, it's important that pilots still call and obtain an official FSS pre-flight weather briefing.

© 2007-2016 CheckWX.com
23:46:11 UTC